Aviation Digital Data Service (ADDS)

Output produced by TAFs form (0306 UTC 26 July 2014)
found at http://aviationweather.gov/adds/tafs/
 
KPUB 252344Z 2600/2624 02010KT P6SM VCTS FEW050 SCT080CB BKN100 
     TEMPO 2600/2602 VRB10G20KT 5SM TSRA BKN060CB 
     FM260200 34008KT P6SM SCT080 BKN150 
     FM260500 VRB04KT P6SM FEW120 SCT200 
     FM261800 08009KT P6SM SCT090 BKN140